• Join FlightAware (Why Join?)
  • Login
  • US Flag 
02:38PM EDT


 

Airport Tracker/Info


-or-


 

Live Flight TrackerFlight Track Log ✈ RPA3153 ✈ 14-Jul-2013 ✈ KBTV - KPHL

Flight Track Log - Related Links

Times and Time Zones

All times are in EDT time to prevent confusion due to time zone crossing. See the RPA3153 flight status page for this flight to view local times or setup timezone preferences in your user account.

Time Position Orientation Groundspeed Altitude Reporting Facility
EDT Latitude Longitude Course Direction KTS MPH feet Rate Location/Type
07:42AM 44.1283 -73.2769 195° South  Level FlightAware Approximate
07:43AM 44.0432 -73.3078 194° South  Level FlightAware Approximate
07:43AM 44.2089 -73.2075 198° South 294 338 9,400  Level Boston Center
07:44AM 43.9576 -73.3364 193° South  Level FlightAware Approximate
07:44AM 44.1294 -73.2414 197° South 299 344 11,300  Level Boston Center
07:45AM 43.8723 -73.3667 195° South  Level FlightAware Approximate
07:45AM 44.0394 -73.2775 196° South 325 374 13,100  Level Boston Center
07:46AM 43.7874 -73.3986 195° South  Level FlightAware Approximate
07:46AM 43.9497 -73.3167 197° South 337 388 15,000  Level Boston Center
07:47AM 43.7024 -73.4304 195° South  Level FlightAware Approximate
07:47AM 43.8661 -73.3500 196° South 344 396 16,800  Level Boston Center
07:48AM 43.6180 -73.4646 198° South  Level FlightAware Approximate
07:48AM 43.7697 -73.3917 197° South 355 409 17,800  Level Boston Center
07:49AM 43.6589 -73.4331 195° South 367 422 19,400 1,440 Climbing Boston Center
07:50AM 43.5586 -73.4714 195° South 378 435 20,700 1,200 Climbing Boston Center
07:51AM 43.4542 -73.5156 197° South 383 441 21,900 1,260 Climbing Boston Center
07:52AM 43.3453 -73.5592 196° South 393 452 23,300 1,200 Climbing Boston Center
07:53AM 43.2386 -73.6028 197° South 404 465 24,400 960 Climbing Boston Center
07:54AM 43.1506 -73.6381 196° South 409 471 25,300 780 Climbing Boston Center
07:55AM 43.0272 -73.6925 198° South 414 476 26,000 300 Climbing Boston Center
07:56AM 42.9161 -73.7386 197° South 419 482 26,000  Level Boston Center
07:57AM 42.8053 -73.7814 196° South 419 482 26,000  Level Boston Center
07:58AM 42.7144 -73.8642 214° Southwest 419 482 26,000  Level Boston Center
07:59AM 42.6525 -73.9928 237° Southwest 398 458 26,000  Level Boston Center
08:00AM 42.5922 -74.1239 238° Southwest 405 466 26,000  Level Boston Center
08:01AM 42.5339 -74.2489 238° Southwest 405 466 26,000  Level Boston Center
08:02AM 42.4692 -74.3822 237° Southwest 415 478 26,000  Level Boston Center
08:03AM 42.4044 -74.5067 235° Southwest 415 478 26,000  Level Boston Center
08:05AM 42.2856 -74.7456 236° Southwest 388 447 26,000 -420 Level New York Center
08:06AM 42.2211 -74.8703 235° Southwest 393 452 24,900 -1,440 Descending New York Center
08:07AM 42.1678 -74.9622 232° Southwest 393 452 23,200 -1,980 Descending New York Center
08:08AM 42.0647 -75.0506 212° Southwest 393 452 21,000 -1,980 Descending New York Center
08:09AM 41.9719 -75.1450 217° Southwest 393 452 19,400 -1,020 Descending New York Center
08:10AM 41.8844 -75.2033 206° Southwest 374 430 19,000 -240 Descending New York Center
08:11AM 41.7944 -75.2725 210° Southwest 374 430 19,000 -480 Level New York Center
08:12AM 41.7083 -75.3444 212° Southwest 374 430 18,100 -1,560 Descending New York Center
08:13AM 41.6331 -75.4031 210° Southwest 369 425 15,900 -2,160 Descending New York Center
08:14AM 41.5428 -75.4744 211° Southwest 358 412 13,900 -1,920 Descending New York Center
08:15AM 41.4675 -75.5356 211° Southwest 338 389 12,200 -960 Descending New York Center
08:16AM 41.3922 -75.5967 211° Southwest 332 382 12,000 -120 Descending New York Center
08:17AM 41.3233 -75.6497 210° Southwest 327 376 12,000  Level New York Center
08:18AM 41.2447 -75.6881 200° South 318 366 12,000  Level New York Center
08:19AM 41.1575 -75.6817 177° South 313 360 12,000  Level New York Center
08:20AM 41.0608 -75.6472 165° South 319 367 12,000  Level New York Center
08:21AM 40.9706 -75.6189 167° South 333 383 12,000  Level New York Center
08:22AM 40.8925 -75.5886 164° South 333 383 12,000  Level New York Center
08:23AM 40.8064 -75.5578 165° South 333 383 12,000  Level New York Center
08:24AM 40.7117 -75.5239 165° South 333 383 12,000  Level New York Center
08:25AM 40.6233 -75.4931 165° South 333 383 12,000 -300 Level New York Center
08:26AM 40.5372 -75.4625 165° South 333 383 11,500 -1,020 Descending New York Center
08:27AM 40.4550 -75.4325 164° South 322 371 10,000 -1,440 Descending New York Center
08:28AM 40.3794 -75.3919 158° South 301 346 8,700 -1,440 Descending New York Center
08:29AM 40.3081 -75.3489 155° Southeast 291 335 7,200 -1,380 Descending New York Center
08:30AM 40.2469 -75.3150 157° South 278 320 6,000 -600 Descending New York Center
08:31AM 40.1714 -75.2747 158° South 284 327 6,000  Level New York Center
08:32AM 40.1167 -75.1833 128° Southeast 279 321 6,000  Level Philadelphia TRACON
08:33AM 40.0667 -75.1167 134° Southeast 201 231 6,000  Level Philadelphia TRACON
08:34AM 40.0167 -75.0667 143° Southeast 198 228 6,000 -540 Level Philadelphia TRACON
08:35AM 40.0000 -75.0000 108° East 203 234 5,000 -1,140 Descending Philadelphia TRACON
08:36AM 39.9667 -74.9500 131° Southeast 187 215 3,600 -960 Descending Philadelphia TRACON
08:37AM 39.9333 -74.9833 217° Southwest 174 200 3,000 -600 Descending Philadelphia TRACON